Time;durP1;ratioP1;P1;durP2;ratioP2;P2;SDS_P1;SDS_P2;PMS_P1;PMS_P2;Temp;Humidity;BMP_temperature;BMP_pressure;BME280_temperature;BME280_humidity;BME280_pressure;Samples;Min_cycle;Max_cycle;Signal;HPM_P1;HPM_P2
2024/02/25 00:01:02;;;;;;;3.03;1.35;;;;;;;;;;12489853;23;20090;-72
2024/02/25 00:06:06;;;;;;;1.98;0.95;;;;;;;;;;12489251;23;20083;-72
2024/02/25 00:11:10;;;;;;;2.88;0.98;;;;;;;;;;12488610;23;20050;-72
2024/02/25 00:16:13;;;;;;;1.52;1.00;;;;;;;;;;12488793;23;20471;-72
2024/02/25 00:21:18;;;;;;;1.20;0.90;;;;;;;;;;12482454;23;20054;-72
2024/02/25 00:26:21;;;;;;;2.95;0.90;;;;;;;;;;12482510;23;20479;-72
2024/02/25 00:31:24;;;;;;;1.20;0.95;;;;;;;;;;12481181;23;20051;-72
2024/02/25 00:36:29;;;;;;;0.82;0.82;;;;;;;;;;12486526;23;20168;-72
2024/02/25 00:41:32;;;;;;;1.33;0.90;;;;;;;;;;12486408;23;20023;-72
2024/02/25 00:46:35;;;;;;;3.17;1.00;;;;;;;;;;12485383;23;20046;-72
2024/02/25 00:51:40;;;;;;;2.55;1.20;;;;;;;;;;12504021;23;20027;-72
2024/02/25 00:56:45;;;;;;;1.27;0.90;;;;;;;;;;12485691;23;20066;-72
2024/02/25 01:01:50;;;;;;;1.33;0.98;;;;;;;;;;12479461;23;20023;-71
2024/02/25 01:06:55;;;;;;;1.58;1.42;;;;;;;;;;12485204;23;20102;-72
2024/02/25 01:11:58;;;;;;;1.48;1.00;;;;;;;;;;12483809;23;20027;-72
2024/02/25 01:17:01;;;;;;;3.40;1.38;;;;;;;;;;12503053;23;20093;-72
2024/02/25 01:22:06;;;;;;;1.92;1.20;;;;;;;;;;12484477;23;20097;-72
2024/02/25 01:27:09;;;;;;;1.33;0.93;;;;;;;;;;12484091;23;20489;-72
2024/02/25 01:32:16;;;;;;;1.85;1.38;;;;;;;;;;12508536;23;20456;-72
2024/02/25 01:37:20;;;;;;;1.45;1.10;;;;;;;;;;12491200;23;20352;-72
2024/02/25 01:42:24;;;;;;;1.15;0.98;;;;;;;;;;12485792;23;20023;-72
2024/02/25 01:47:27;;;;;;;4.15;1.35;;;;;;;;;;12485372;23;20031;-71
2024/02/25 01:52:33;;;;;;;1.20;0.93;;;;;;;;;;12482824;23;20027;-72
2024/02/25 01:57:36;;;;;;;2.53;1.20;;;;;;;;;;12481258;23;20111;-72
2024/02/25 02:02:39;;;;;;;2.70;1.10;;;;;;;;;;12481184;23;20442;-72
2024/02/25 02:07:48;;;;;;;1.33;0.70;;;;;;;;;;12481659;23;20568;-72
2024/02/25 02:12:51;;;;;;;1.95;1.10;;;;;;;;;;12479735;23;20534;-72
2024/02/25 02:17:54;;;;;;;1.55;1.00;;;;;;;;;;12500431;23;20316;-72
2024/02/25 02:22:59;;;;;;;1.02;0.80;;;;;;;;;;12500195;23;20030;-72
2024/02/25 02:28:03;;;;;;;0.77;0.70;;;;;;;;;;12502542;23;20023;-72
2024/02/25 02:33:06;;;;;;;1.77;1.00;;;;;;;;;;12499550;23;20016;-72
2024/02/25 02:38:12;;;;;;;2.33;1.13;;;;;;;;;;12498379;23;20503;-72
2024/02/25 02:43:15;;;;;;;2.60;1.27;;;;;;;;;;12481990;23;20049;-72
2024/02/25 02:48:18;;;;;;;1.23;1.08;;;;;;;;;;12478809;23;20102;-72
2024/02/25 02:53:24;;;;;;;1.38;0.82;;;;;;;;;;12496817;23;20071;-72
2024/02/25 02:58:27;;;;;;;1.23;0.93;;;;;;;;;;12484741;23;20559;-72
2024/02/25 03:03:30;;;;;;;1.45;0.80;;;;;;;;;;12482975;23;20119;-72
2024/02/25 03:08:35;;;;;;;0.75;0.70;;;;;;;;;;12501156;23;20024;-72
2024/02/25 03:13:38;;;;;;;1.00;0.82;;;;;;;;;;12506611;23;20023;-72
2024/02/25 03:18:41;;;;;;;2.00;1.17;;;;;;;;;;12499256;23;20701;-72
2024/02/25 03:23:46;;;;;;;1.73;1.00;;;;;;;;;;12484007;23;20518;-72
2024/02/25 03:28:49;;;;;;;1.50;0.80;;;;;;;;;;12499637;23;20551;-72
2024/02/25 03:33:53;;;;;;;1.33;0.80;;;;;;;;;;12499277;23;20474;-72
2024/02/25 03:38:57;;;;;;;1.30;0.90;;;;;;;;;;12505928;23;20031;-72
2024/02/25 03:44:01;;;;;;;1.98;1.00;;;;;;;;;;12498746;23;20038;-72
2024/02/25 03:49:04;;;;;;;1.10;0.90;;;;;;;;;;12505857;23;20033;-72
2024/02/25 03:54:09;;;;;;;1.02;0.70;;;;;;;;;;12497446;23;20464;-72
2024/02/25 03:59:12;;;;;;;0.60;0.60;;;;;;;;;;12497437;23;20574;-72
2024/02/25 04:04:16;;;;;;;0.70;0.70;;;;;;;;;;12497505;23;20083;-72
2024/02/25 04:09:21;;;;;;;0.75;0.52;;;;;;;;;;12504494;23;20424;-72
2024/02/25 04:14:24;;;;;;;1.27;0.88;;;;;;;;;;12496607;23;20325;-72
2024/02/25 04:19:27;;;;;;;0.85;0.70;;;;;;;;;;12483262;23;20028;-72
2024/02/25 04:24:32;;;;;;;1.30;1.00;;;;;;;;;;12504265;23;20106;-72
2024/02/25 04:29:36;;;;;;;0.80;0.80;;;;;;;;;;12495297;23;20457;-72
2024/02/25 04:34:40;;;;;;;1.38;0.80;;;;;;;;;;12493048;23;20042;-72
2024/02/25 04:39:44;;;;;;;0.70;0.70;;;;;;;;;;12492775;23;20114;-72
2024/02/25 04:44:48;;;;;;;1.38;0.52;;;;;;;;;;12503908;23;20030;-72
2024/02/25 04:49:51;;;;;;;0.73;0.65;;;;;;;;;;12503245;23;20414;-72
2024/02/25 04:54:55;;;;;;;0.70;0.70;;;;;;;;;;12492989;23;20418;-72
2024/02/25 04:59:58;;;;;;;1.73;0.60;;;;;;;;;;12492499;23;20126;-72
2024/02/25 05:05:02;;;;;;;1.10;0.75;;;;;;;;;;12481581;23;20034;-72
2024/02/25 05:10:08;;;;;;;1.00;1.00;;;;;;;;;;12485941;23;20061;-72
2024/02/25 05:15:11;;;;;;;0.80;0.70;;;;;;;;;;12484413;23;20023;-74
2024/02/25 05:20:15;;;;;;;0.68;0.68;;;;;;;;;;12490641;23;20066;-74
2024/02/25 05:25:20;;;;;;;1.48;0.80;;;;;;;;;;12490905;23;20511;-74
2024/02/25 05:30:23;;;;;;;1.10;1.00;;;;;;;;;;12489596;23;20027;-74
2024/02/25 05:35:26;;;;;;;0.60;0.60;;;;;;;;;;12478665;23;20134;-74
2024/02/25 05:40:31;;;;;;;1.25;0.90;;;;;;;;;;12488934;23;20033;-74
2024/02/25 05:45:34;;;;;;;0.60;0.60;;;;;;;;;;12479179;23;20127;-73
2024/02/25 05:50:37;;;;;;;0.80;0.60;;;;;;;;;;12489363;23;20027;-73
2024/02/25 05:55:42;;;;;;;0.88;0.70;;;;;;;;;;12480140;23;20023;-73
2024/02/25 06:00:45;;;;;;;1.02;0.70;;;;;;;;;;12488417;23;20106;-73
2024/02/25 06:05:48;;;;;;;0.60;0.60;;;;;;;;;;12478876;23;20030;-74
2024/02/25 06:10:53;;;;;;;0.70;0.70;;;;;;;;;;12487345;23;20027;-74
2024/02/25 06:15:57;;;;;;;0.63;0.63;;;;;;;;;;12492950;23;20027;-74
2024/02/25 06:21:00;;;;;;;0.60;0.60;;;;;;;;;;12494316;23;20066;-73
2024/02/25 06:26:06;;;;;;;0.50;0.50;;;;;;;;;;12490503;23;20034;-74
2024/02/25 06:31:09;;;;;;;;;;;;;;;;;;12488439;23;20743;-74
2024/02/25 06:36:19;;;;;;;1.00;0.70;;;;;;;;;;12487570;23;19924;-73
2024/02/25 06:41:24;;;;;;;0.60;0.60;;;;;;;;;;12486371;23;20600;-73
2024/02/25 06:46:28;;;;;;;0.87;0.80;;;;;;;;;;12502631;23;20034;-74
2024/02/25 06:51:31;;;;;;;0.98;0.50;;;;;;;;;;12484991;23;20110;-73
2024/02/25 06:56:36;;;;;;;0.50;0.50;;;;;;;;;;12483334;23;20027;-73
2024/02/25 07:01:39;;;;;;;0.57;0.50;;;;;;;;;;12483426;23;20035;-74
2024/02/25 07:06:43;;;;;;;0.75;0.50;;;;;;;;;;12484106;23;20107;-74
2024/02/25 07:11:49;;;;;;;0.60;0.60;;;;;;;;;;12479163;23;20333;-74
2024/02/25 07:16:52;;;;;;;0.70;0.70;;;;;;;;;;12481354;23;20046;-73
2024/02/25 07:21:55;;;;;;;0.95;0.63;;;;;;;;;;12476011;23;20023;-74
2024/02/25 07:27:00;;;;;;;0.68;0.50;;;;;;;;;;12481382;23;20027;-73
2024/02/25 07:32:04;;;;;;;0.82;0.70;;;;;;;;;;12477559;23;20728;-74
2024/02/25 07:37:07;;;;;;;1.65;0.90;;;;;;;;;;12481327;23;20063;-74
2024/02/25 07:42:12;;;;;;;0.60;0.60;;;;;;;;;;12483716;23;20027;-74
2024/02/25 07:47:15;;;;;;;0.60;0.60;;;;;;;;;;12483794;23;20035;-74
2024/02/25 07:52:19;;;;;;;0.85;0.70;;;;;;;;;;12479630;23;20035;-74
2024/02/25 07:57:23;;;;;;;1.65;0.52;;;;;;;;;;12482543;23;20098;-74
2024/02/25 08:02:26;;;;;;;0.52;0.52;;;;;;;;;;12482112;23;20035;-74
2024/02/25 08:07:30;;;;;;;0.60;0.60;;;;;;;;;;12481805;23;20038;-74
2024/02/25 08:12:34;;;;;;;1.00;0.70;;;;;;;;;;12479318;23;20038;-74
2024/02/25 08:17:38;;;;;;;0.82;0.50;;;;;;;;;;12478946;23;20034;-74
2024/02/25 08:22:41;;;;;;;0.50;0.50;;;;;;;;;;12478557;23;20086;-74
2024/02/25 08:27:45;;;;;;;0.40;0.40;;;;;;;;;;12479188;23;20031;-74
2024/02/25 08:32:49;;;;;;;0.52;0.52;;;;;;;;;;12480544;23;20051;-74
2024/02/25 08:37:52;;;;;;;0.57;0.50;;;;;;;;;;12481071;23;20086;-74
2024/02/25 08:42:57;;;;;;;0.55;0.55;;;;;;;;;;12500510;23;20019;-74
2024/02/25 08:48:00;;;;;;;0.98;0.50;;;;;;;;;;12480939;23;20023;-74
2024/02/25 08:53:03;;;;;;;0.60;0.60;;;;;;;;;;12499512;23;20023;-74
2024/02/25 08:58:08;;;;;;;0.85;0.50;;;;;;;;;;12499190;23;20504;-74
2024/02/25 09:03:11;;;;;;;0.52;0.40;;;;;;;;;;12497950;23;20098;-74
2024/02/25 09:08:15;;;;;;;1.30;0.70;;;;;;;;;;12497549;23;20031;-74
2024/02/25 09:13:19;;;;;;;0.90;0.60;;;;;;;;;;12492766;23;20491;-74
2024/02/25 09:18:23;;;;;;;0.38;0.38;;;;;;;;;;12496298;23;20052;-74
2024/02/25 09:23:26;;;;;;;0.82;0.60;;;;;;;;;;12493122;23;20700;-74
2024/02/25 09:28:30;;;;;;;1.00;0.68;;;;;;;;;;12500010;23;20019;-74
2024/02/25 09:33:35;;;;;;;0.55;0.55;;;;;;;;;;12500490;23;20027;-74
2024/02/25 09:38:38;;;;;;;0.30;0.30;;;;;;;;;;12497647;23;20032;-74
2024/02/25 09:43:43;;;;;;;0.40;0.40;;;;;;;;;;12477828;23;20015;-74
2024/02/25 09:48:51;;;;;;;0.40;0.40;;;;;;;;;;12484834;23;20027;-75
2024/02/25 09:53:57;;;;;;;0.52;0.50;;;;;;;;;;12513584;23;20031;-74
2024/02/25 09:59:02;;;;;;;0.57;0.57;;;;;;;;;;12504361;23;20028;-74
2024/02/25 10:04:08;;;;;;;0.73;0.53;;;;;;;;;;12484375;23;20106;-74
2024/02/25 10:09:12;;;;;;;0.50;0.50;;;;;;;;;;12481483;23;20029;-74
2024/02/25 10:14:18;;;;;;;0.95;0.80;;;;;;;;;;12498604;23;20028;-75
2024/02/25 10:19:22;;;;;;;0.85;0.55;;;;;;;;;;12482327;23;20082;-74
2024/02/25 10:24:30;;;;;;;1.17;0.70;;;;;;;;;;12481057;23;20050;-74
2024/02/25 10:29:49;;;;;;;0.63;0.57;;;;;;;;;;12480694;23;20047;-74
2024/02/25 10:34:54;;;;;;;0.60;0.60;;;;;;;;;;12491377;23;20125;-74
2024/02/25 10:39:59;;;;;;;1.20;0.80;;;;;;;;;;12492395;23;20054;-75
2024/02/25 10:45:04;;;;;;;0.75;0.60;;;;;;;;;;12492023;23;20038;-74
2024/02/25 10:50:09;;;;;;;0.75;0.63;;;;;;;;;;12490760;23;20035;-74
2024/02/25 10:55:14;;;;;;;0.77;0.40;;;;;;;;;;12477905;23;20446;-74
2024/02/25 11:00:19;;;;;;;0.37;0.30;;;;;;;;;;12489695;23;20047;-75
2024/02/25 11:05:23;;;;;;;0.40;0.40;;;;;;;;;;12489530;23;20079;-74
2024/02/25 11:10:33;;;;;;;0.40;0.40;;;;;;;;;;12480101;23;20451;-74
2024/02/25 11:15:38;;;;;;;1.02;0.70;;;;;;;;;;12475837;23;20023;-73
2024/02/25 11:20:42;;;;;;;0.73;0.57;;;;;;;;;;12484354;23;20110;-73
2024/02/25 11:25:45;;;;;;;0.57;0.50;;;;;;;;;;12484332;23;20079;-73
2024/02/25 11:30:52;;;;;;;0.85;0.80;;;;;;;;;;12481635;23;20400;-73
2024/02/25 11:35:57;;;;;;;0.50;0.50;;;;;;;;;;12489278;23;20141;-73
2024/02/25 11:41:00;;;;;;;0.63;0.40;;;;;;;;;;12489430;23;20027;-73
2024/02/25 11:46:07;;;;;;;0.57;0.57;;;;;;;;;;12487303;23;20348;-73
2024/02/25 11:51:10;;;;;;;0.57;0.47;;;;;;;;;;12488542;23;20102;-72
2024/02/25 11:56:13;;;;;;;0.68;0.60;;;;;;;;;;12488495;23;20051;-73
2024/02/25 12:01:18;;;;;;;1.00;0.52;;;;;;;;;;12488000;23;20115;-73
2024/02/25 12:06:23;;;;;;;0.63;0.52;;;;;;;;;;12487870;23;20106;-73
2024/02/25 12:11:26;;;;;;;0.43;0.43;;;;;;;;;;12487259;23;20035;-73
2024/02/25 12:16:31;;;;;;;0.45;0.40;;;;;;;;;;12480161;23;20098;-73
2024/02/25 12:21:35;;;;;;;0.32;0.32;;;;;;;;;;12487516;23;20035;-73
2024/02/25 12:26:59;;;;;;;0.30;0.30;;;;;;;;;;12484243;23;20027;-73
2024/02/25 12:32:08;;;;;;;0.85;0.40;;;;;;;;;;12484083;23;20031;-73
2024/02/25 12:37:15;;;;;;;0.55;0.50;;;;;;;;;;12485769;23;20574;-73
2024/02/25 12:42:18;;;;;;;;;;;;;;;;;;12482004;23;20377;-73
2024/02/25 12:47:22;;;;;;;0.38;0.38;;;;;;;;;;12505093;23;19922;-73
2024/02/25 12:52:26;;;;;;;0.90;0.47;;;;;;;;;;12480585;23;20031;-73
2024/02/25 12:57:29;;;;;;;1.15;0.57;;;;;;;;;;12482111;23;20708;-73
2024/02/25 13:02:33;;;;;;;0.98;0.60;;;;;;;;;;12481935;23;20038;-73
2024/02/25 13:07:38;;;;;;;1.25;0.63;;;;;;;;;;12481651;23;20062;-73
2024/02/25 13:12:45;;;;;;;0.93;0.63;;;;;;;;;;12481071;23;20082;-73
2024/02/25 13:17:49;;;;;;;1.40;0.70;;;;;;;;;;12482415;23;20027;-73
2024/02/25 13:22:53;;;;;;;0.70;0.60;;;;;;;;;;12482614;23;20468;-73
2024/02/25 13:27:56;;;;;;;1.75;0.70;;;;;;;;;;12501795;23;20114;-73
2024/02/25 13:33:02;;;;;;;1.10;0.70;;;;;;;;;;12502070;23;20659;-73
2024/02/25 13:38:06;;;;;;;1.75;1.00;;;;;;;;;;12500314;23;20022;-73
2024/02/25 13:43:09;;;;;;;12.52;6.25;;;;;;;;;;12501802;23;20463;-73
2024/02/25 13:48:15;;;;;;;5.75;3.17;;;;;;;;;;12483813;23;20023;-72
2024/02/25 13:53:19;;;;;;;2.13;1.30;;;;;;;;;;12501733;23;20047;-73
2024/02/25 13:58:23;;;;;;;1.60;1.20;;;;;;;;;;12499900;23;20027;-72
2024/02/25 14:03:27;;;;;;;2.30;1.20;;;;;;;;;;12501194;23;20719;-72
2024/02/25 14:08:31;;;;;;;1.42;0.70;;;;;;;;;;12479128;23;20057;-73
2024/02/25 14:13:34;;;;;;;1.67;0.88;;;;;;;;;;12498618;23;20261;-73
2024/02/25 14:18:39;;;;;;;1.30;0.80;;;;;;;;;;12479836;23;20107;-73
2024/02/25 14:23:43;;;;;;;0.82;0.70;;;;;;;;;;12482723;23;20440;-72
2024/02/25 14:28:47;;;;;;;0.50;0.45;;;;;;;;;;12497832;23;20035;-73
2024/02/25 14:33:51;;;;;;;1.23;0.50;;;;;;;;;;12496548;23;20035;-73
2024/02/25 14:38:55;;;;;;;1.30;0.80;;;;;;;;;;12478684;23;20094;-73
2024/02/25 14:43:58;;;;;;;1.13;0.60;;;;;;;;;;12493767;23;20582;-73
2024/02/25 14:49:04;;;;;;;0.65;0.55;;;;;;;;;;12494004;23;20530;-73
2024/02/25 14:54:08;;;;;;;1.27;0.65;;;;;;;;;;12498655;23;20031;-73
2024/02/25 14:59:12;;;;;;;0.57;0.50;;;;;;;;;;12484072;23;20031;-73
2024/02/25 15:04:17;;;;;;;1.00;0.75;;;;;;;;;;12498708;23;20347;-73
2024/02/25 15:09:20;;;;;;;0.45;0.40;;;;;;;;;;12499298;23;20023;-73
2024/02/25 15:14:24;;;;;;;0.95;0.70;;;;;;;;;;12484494;23;20023;-73
2024/02/25 15:19:28;;;;;;;0.40;0.40;;;;;;;;;;12498055;23;20031;-73
2024/02/25 15:24:32;;;;;;;1.73;0.47;;;;;;;;;;12497834;23;20023;-73
2024/02/25 15:29:35;;;;;;;3.30;1.05;;;;;;;;;;12497821;23;20034;-73
2024/02/25 15:34:40;;;;;;;1.35;0.75;;;;;;;;;;12497377;23;20105;-73
2024/02/25 15:39:48;;;;;;;0.70;0.50;;;;;;;;;;12495881;23;20031;-73
2024/02/25 15:44:51;;;;;;;1.15;0.65;;;;;;;;;;12496548;23;20090;-73
2024/02/25 15:49:56;;;;;;;0.88;0.55;;;;;;;;;;12484421;23;20086;-72
2024/02/25 15:55:00;;;;;;;0.50;0.50;;;;;;;;;;12495780;23;20491;-73
2024/02/25 16:00:05;;;;;;;3.55;1.20;;;;;;;;;;12494115;23;20093;-73
2024/02/25 16:05:16;;;;;;;1.73;1.20;;;;;;;;;;12484879;23;20034;-72
2024/02/25 16:10:19;;;;;;;6.80;1.92;;;;;;;;;;12489636;23;20043;-72
2024/02/25 16:15:24;;;;;;;1.48;1.00;;;;;;;;;;12487920;23;20027;-72
2024/02/25 16:20:29;;;;;;;1.45;0.70;;;;;;;;;;12483117;23;20812;-73
2024/02/25 16:25:34;;;;;;;1.50;1.17;;;;;;;;;;12484483;23;20142;-73
2024/02/25 16:30:37;;;;;;;1.17;0.73;;;;;;;;;;12484878;23;20109;-72
2024/02/25 16:35:42;;;;;;;0.82;0.80;;;;;;;;;;12493347;23;20378;-73
2024/02/25 16:40:45;;;;;;;1.33;1.05;;;;;;;;;;12506196;23;20094;-72
2024/02/25 16:45:49;;;;;;;1.35;1.08;;;;;;;;;;12491549;23;20305;-73
2024/02/25 16:50:53;;;;;;;1.60;1.02;;;;;;;;;;12491531;23;20049;-73
2024/02/25 16:55:57;;;;;;;3.30;1.70;;;;;;;;;;12490886;23;20110;-73
2024/02/25 17:01:00;;;;;;;2.13;1.30;;;;;;;;;;12489817;23;20034;-72
2024/02/25 17:06:05;;;;;;;2.38;1.70;;;;;;;;;;12490867;23;20043;-74
2024/02/25 17:11:09;;;;;;;3.13;1.50;;;;;;;;;;12489616;23;20082;-74
2024/02/25 17:16:13;;;;;;;1.77;1.27;;;;;;;;;;12484197;23;20027;-74
2024/02/25 17:21:20;;;;;;;1.60;1.00;;;;;;;;;;12483032;23;20038;-75
2024/02/25 17:26:25;;;;;;;0.63;0.60;;;;;;;;;;12488622;23;20083;-75
2024/02/25 17:31:28;;;;;;;2.17;1.25;;;;;;;;;;12489658;23;20103;-74
2024/02/25 17:36:33;;;;;;;3.05;1.65;;;;;;;;;;12482501;23;20027;-74
2024/02/25 17:41:36;;;;;;;3.10;1.55;;;;;;;;;;12484117;23;20034;-74
2024/02/25 17:46:40;;;;;;;1.75;1.05;;;;;;;;;;12483334;23;20054;-74
2024/02/25 17:51:45;;;;;;;0.90;0.90;;;;;;;;;;12488212;23;20083;-74
2024/02/25 17:56:49;;;;;;;1.58;1.20;;;;;;;;;;12487442;23;20199;-74
2024/02/25 18:01:54;;;;;;;2.15;1.27;;;;;;;;;;12486979;23;20034;-74
2024/02/25 18:06:59;;;;;;;1.92;1.42;;;;;;;;;;12486501;23;20075;-75
2024/02/25 18:12:04;;;;;;;2.97;1.58;;;;;;;;;;12486981;23;20158;-75
2024/02/25 18:17:08;;;;;;;2.87;1.97;;;;;;;;;;12481129;23;20034;-74
2024/02/25 18:22:13;;;;;;;3.28;2.30;;;;;;;;;;12485143;23;20038;-74
2024/02/25 18:27:16;;;;;;;3.13;2.17;;;;;;;;;;12485475;23;20023;-75
2024/02/25 18:32:21;;;;;;;2.47;1.80;;;;;;;;;;12484826;23;20083;-75
2024/02/25 18:37:25;;;;;;;2.45;1.80;;;;;;;;;;12483637;23;20371;-75
2024/02/25 18:42:29;;;;;;;2.78;2.05;;;;;;;;;;12484183;23;20027;-74
2024/02/25 18:47:33;;;;;;;2.78;1.73;;;;;;;;;;12483834;23;20499;-75
2024/02/25 18:52:38;;;;;;;1.48;1.20;;;;;;;;;;12483408;23;20031;-74
2024/02/25 18:57:42;;;;;;;3.25;1.77;;;;;;;;;;12482328;23;20027;-74
2024/02/25 19:02:46;;;;;;;1.88;1.30;;;;;;;;;;12482553;23;20027;-74
2024/02/25 19:07:52;;;;;;;2.33;1.70;;;;;;;;;;12482163;23;20341;-74
2024/02/25 19:12:59;;;;;;;2.60;1.50;;;;;;;;;;12481438;23;20054;-75
2024/02/25 19:18:03;;;;;;;2.22;1.33;;;;;;;;;;12479709;23;20102;-75
2024/02/25 19:23:07;;;;;;;2.05;1.35;;;;;;;;;;12482485;23;20032;-74
2024/02/25 19:28:11;;;;;;;1.92;1.30;;;;;;;;;;12482296;23;20027;-74
2024/02/25 19:33:16;;;;;;;1.83;1.10;;;;;;;;;;12482498;23;20104;-74
2024/02/25 19:38:21;;;;;;;2.35;1.00;;;;;;;;;;12503040;23;20059;-74
2024/02/25 19:43:24;;;;;;;2.08;1.33;;;;;;;;;;12485040;23;20027;-74
2024/02/25 19:48:28;;;;;;;2.88;1.92;;;;;;;;;;12485543;23;20595;-74
2024/02/25 19:53:33;;;;;;;3.80;2.35;;;;;;;;;;12502216;23;20883;-75
2024/02/25 19:58:37;;;;;;;5.47;1.80;;;;;;;;;;12501853;23;20054;-74
2024/02/25 20:03:41;;;;;;;4.80;2.78;;;;;;;;;;12483050;23;20352;-74
2024/02/25 20:08:47;;;;;;;4.40;2.78;;;;;;;;;;12483507;23;20030;-75
2024/02/25 20:13:50;;;;;;;5.80;2.83;;;;;;;;;;12501087;23;20038;-74
2024/02/25 20:18:54;;;;;;;5.15;2.08;;;;;;;;;;12499902;23;20258;-74
2024/02/25 20:23:59;;;;;;;1.83;1.38;;;;;;;;;;12500264;23;20034;-74
2024/02/25 20:29:03;;;;;;;2.20;1.60;;;;;;;;;;12502016;23;20066;-74
2024/02/25 20:34:06;;;;;;;2.72;1.75;;;;;;;;;;12509744;23;20082;-74
2024/02/25 20:39:11;;;;;;;2.20;1.70;;;;;;;;;;12487356;23;20052;-75
2024/02/25 20:44:17;;;;;;;3.88;1.75;;;;;;;;;;12501981;23;20028;-74
2024/02/25 20:49:25;;;;;;;2.20;1.40;;;;;;;;;;12499473;23;20099;-74
2024/02/25 20:54:31;;;;;;;1.80;1.38;;;;;;;;;;12483615;23;20035;-74
2024/02/25 20:59:35;;;;;;;1.73;1.20;;;;;;;;;;12483105;23;20054;-74
2024/02/25 21:04:38;;;;;;;2.30;1.67;;;;;;;;;;12497636;23;20090;-74
2024/02/25 21:09:43;;;;;;;1.92;1.50;;;;;;;;;;12496739;23;20034;-74
2024/02/25 21:14:47;;;;;;;1.80;1.30;;;;;;;;;;12496147;23;20038;-74
2024/02/25 21:19:50;;;;;;;2.33;1.33;;;;;;;;;;12482024;23;20062;-74
2024/02/25 21:24:55;;;;;;;2.95;1.33;;;;;;;;;;12480933;23;20031;-74
2024/02/25 21:29:59;;;;;;;2.10;1.33;;;;;;;;;;12481823;23;20091;-74
2024/02/25 21:35:06;;;;;;;1.80;1.23;;;;;;;;;;12482445;23;20126;-74
2024/02/25 21:40:13;;;;;;;1.35;1.10;;;;;;;;;;12480803;23;20075;-75
2024/02/25 21:45:17;;;;;;;2.10;1.25;;;;;;;;;;12481826;23;20708;-75
2024/02/25 21:50:20;;;;;;;1.00;0.90;;;;;;;;;;12481088;23;20459;-74
2024/02/25 21:55:26;;;;;;;1.20;0.90;;;;;;;;;;12493076;23;20368;-74
2024/02/25 22:00:30;;;;;;;1.95;1.27;;;;;;;;;;12481222;23;20550;-74
2024/02/25 22:05:33;;;;;;;2.63;1.58;;;;;;;;;;12492459;23;20035;-75
2024/02/25 22:10:41;;;;;;;2.25;1.33;;;;;;;;;;12491668;23;20058;-74
2024/02/25 22:15:44;;;;;;;2.15;1.70;;;;;;;;;;12491028;23;20031;-74
2024/02/25 22:20:48;;;;;;;1.75;1.25;;;;;;;;;;12489874;23;20130;-74
2024/02/25 22:25:54;;;;;;;2.00;1.23;;;;;;;;;;12479486;23;20532;-75
2024/02/25 22:30:57;;;;;;;1.90;1.00;;;;;;;;;;12487361;23;20372;-75
2024/02/25 22:36:01;;;;;;;1.23;1.05;;;;;;;;;;12487416;23;20027;-74
2024/02/25 22:41:06;;;;;;;1.65;1.20;;;;;;;;;;12479262;23;20023;-75
2024/02/25 22:46:10;;;;;;;2.10;1.27;;;;;;;;;;12481228;23;20495;-74
2024/02/25 22:51:14;;;;;;;1.27;1.10;;;;;;;;;;12486824;23;20087;-75
2024/02/25 22:56:19;;;;;;;1.55;1.20;;;;;;;;;;12486743;23;20027;-75
2024/02/25 23:01:23;;;;;;;1.17;1.00;;;;;;;;;;12478627;23;20023;-75
2024/02/25 23:06:26;;;;;;;1.02;0.93;;;;;;;;;;12479509;23;20156;-74
2024/02/25 23:11:31;;;;;;;2.58;1.23;;;;;;;;;;12481815;23;20079;-74
2024/02/25 23:16:35;;;;;;;1.02;0.77;;;;;;;;;;12467115;23;20058;-73
2024/02/25 23:21:38;;;;;;;0.70;0.70;;;;;;;;;;12488937;23;20464;-73
2024/02/25 23:26:43;;;;;;;0.98;0.80;;;;;;;;;;12488665;23;20035;-73
2024/02/25 23:31:46;;;;;;;0.90;0.57;;;;;;;;;;12488303;23;20023;-73
2024/02/25 23:36:49;;;;;;;1.13;0.60;;;;;;;;;;12487686;23;20037;-73
2024/02/25 23:41:55;;;;;;;1.20;0.80;;;;;;;;;;12488515;23;20033;-73
2024/02/25 23:46:58;;;;;;;0.75;0.60;;;;;;;;;;12482675;23;20478;-73
2024/02/25 23:52:01;;;;;;;0.70;0.60;;;;;;;;;;12483008;23;20527;-73
2024/02/25 23:57:06;;;;;;;0.50;0.50;;;;;;;;;;12486977;23;20355;-73
